X  Sluiten METAR luchtvaart weer gegevens      EHAM Amsterdam Airport Schiphol
Temperatuur
4°C Temperatuur
3°C Dauwpunt
93% Vochtigheid



Wind
10 KM/U
6 MPH
3 M/S
5 KTS



210°
ZZW
Huidig weer

Lichte Buien, Regen Lichte Buien, Regen
Luchtdruk 1008.92 (hPa) - 29.79 (inHg)
Zicht 6.2 (mijl) - 10 (km)
Vliegveld
Vliegveld code EHAM

Locatie : Amsterdam Airport Schiphol
Afstand: 20 (km)

Metar:
EHAM 080055Z 21005KT 9999 -SHRA FEW010 FEW020CB BKN025 04/03 Q1009 TEMPO 7000

Tijd: 08-12-2022 01:55 CET